aviador You're here:

KOZW Decoded Metar

HOWELL in MI, USA
Report Time2018-06-23 13:35:00
UTC Time2018-06-23 13:46:47
Flight Rules ifr IFR
Wind290° at 03 kt
W.Decomp.*RWY 31: 2.9 kt HW 0.8 kt LCW
W.Rank290° ranks 10
Current wind is below 290° avg. (8.0)
Visibility8047 m
Phenomena:Mist
Clouds:Overcast 005 Hf
Ceiling500 ft
Temp19°C (ISA +6)
Dew Point19°C (100% RH)
QNH1006 hPa
Density Alt2,185 ft
Elevation961 ft
Report Wrong Elevation
Raw Report
KOZW 231335Z AUTO 29003KT 5SM BR OVC005 19/19 A2971 RMK AO2
T01920186=

Extra information for KOZW:More info

Metar Taf Metar & Taf Last 4 Metars F.Rules Stats Wind Profile Meteogram Temp Stats Airport Information Weather charts Add Link Nearby VenuesMetar ALERT Operation Metar Decoded Social comments

AIRNAV info for KOZW